Time;durP1;ratioP1;P1;durP2;ratioP2;P2;SDS_P1;SDS_P2;PMS_P1;PMS_P2;Temp;Humidity;BMP_temperature;BMP_pressure;BME280_temperature;BME280_humidity;BME280_pressure;Samples;Min_cycle;Max_cycle;Signal;HPM_P1;HPM_P2
2021/08/19 00:01:17;;;;;;;4.80;2.30;;;16.00;82.90;;;;;;5156843;27;20531;-77
2021/08/19 00:03:43;;;;;;;4.75;2.45;;;16.00;82.70;;;;;;5156801;27;20019;-77
2021/08/19 00:06:09;;;;;;;3.70;2.33;;;16.00;82.40;;;;;;5156758;27;20482;-77
2021/08/19 00:08:35;;;;;;;2.63;1.90;;;16.00;82.70;;;;;;5156667;27;20027;-77
2021/08/19 00:11:00;;;;;;;6.93;2.50;;;16.00;82.90;;;;;;5156807;27;20098;-77
2021/08/19 00:13:26;;;;;;;3.00;2.40;;;16.00;82.90;;;;;;5156572;27;20030;-77
2021/08/19 00:15:52;;;;;;;2.45;2.00;;;16.10;83.00;;;;;;5156488;27;20023;-77
2021/08/19 00:18:17;;;;;;;3.88;2.38;;;16.10;83.00;;;;;;5156508;27;20019;-77
2021/08/19 00:20:43;;;;;;;4.80;2.25;;;16.20;82.80;;;;;;5156620;27;20023;-76
2021/08/19 00:23:09;;;;;;;2.88;2.08;;;16.20;82.70;;;;;;5156315;27;20030;-77
2021/08/19 00:25:36;;;;;;;5.20;2.30;;;16.20;82.50;;;;;;5156316;27;20026;-76
2021/08/19 00:28:02;;;;;;;4.90;2.30;;;16.20;82.30;;;;;;5156271;27;20025;-76
2021/08/19 00:30:27;;;;;;;3.35;1.95;;;16.00;82.60;;;;;;5156211;27;20014;-76
2021/08/19 00:32:54;;;;;;;3.42;2.38;;;16.00;82.90;;;;;;5156235;27;20423;-76
2021/08/19 00:35:19;;;;;;;5.97;2.20;;;15.90;83.20;;;;;;5156131;27;20023;-76
2021/08/19 00:37:45;;;;;;;4.43;2.70;;;15.90;83.40;;;;;;5155984;27;20117;-76
2021/08/19 00:40:11;;;;;;;3.05;2.47;;;15.90;83.50;;;;;;5156116;27;20044;-76
2021/08/19 00:42:37;;;;;;;5.00;2.35;;;15.90;83.40;;;;;;5155983;27;20110;-76
2021/08/19 00:45:03;;;;;;;4.30;2.70;;;15.90;83.50;;;;;;5154891;27;20541;-76
2021/08/19 00:47:29;;;;;;;2.42;2.03;;;16.00;83.60;;;;;;5155881;27;20091;-76
2021/08/19 00:50:00;;;;;;;3.58;2.05;;;16.00;83.70;;;;;;5155819;27;20381;-76
2021/08/19 00:52:27;;;;;;;2.38;1.80;;;16.10;83.70;;;;;;5155676;27;20093;-76
2021/08/19 00:54:53;;;;;;;3.72;1.80;;;16.10;83.50;;;;;;5155738;27;20026;-78
2021/08/19 00:57:21;;;;;;;2.90;2.08;;;16.20;83.40;;;;;;5155644;27;20079;-76
2021/08/19 00:59:48;;;;;;;3.20;1.85;;;16.20;84.10;;;;;;5155732;27;20022;-76
2021/08/19 01:02:13;;;;;;;2.88;2.17;;;16.20;83.10;;;;;;5155882;27;20072;-76
2021/08/19 01:04:42;;;;;;;3.17;2.20;;;16.30;83.10;;;;;;5155503;27;20026;-76
2021/08/19 01:07:11;;;;;;;2.42;1.92;;;16.30;83.00;;;;;;5155933;27;20023;-76
2021/08/19 01:09:38;;;;;;;2.88;1.98;;;16.30;83.00;;;;;;5155600;27;20078;-76
2021/08/19 01:12:09;;;;;;;4.03;1.90;;;16.40;83.10;;;;;;5155498;27;20022;-75
2021/08/19 01:14:36;;;;;;;3.38;2.28;;;16.40;83.20;;;;;;5155503;27;20420;-76
2021/08/19 01:17:15;;;;;;;5.55;2.08;;;16.40;83.10;;;;;;5155321;27;20027;-75
2021/08/19 01:19:50;;;;;;;3.05;2.20;;;16.40;83.00;;;;;;5155277;27;20060;-76
2021/08/19 01:22:20;;;;;;;2.35;1.95;;;16.40;82.80;;;;;;5136785;27;20105;-76
2021/08/19 01:24:46;;;;;;;3.55;2.70;;;16.40;82.70;;;;;;5136664;27;20031;-76
2021/08/19 01:27:16;;;;;;;3.95;2.10;;;16.40;82.80;;;;;;5155113;27;20072;-76
2021/08/19 01:29:43;;;;;;;2.63;1.90;;;16.40;82.90;;;;;;5155142;27;20030;-76
2021/08/19 01:32:10;;;;;;;4.50;2.20;;;16.40;82.80;;;;;;5154943;27;20424;-76
2021/08/19 01:34:37;;;;;;;2.72;2.05;;;16.50;83.00;;;;;;5154955;27;20074;-77
2021/08/19 01:37:04;;;;;;;3.05;2.13;;;16.40;82.80;;;;;;5155003;27;20118;-78
2021/08/19 01:39:29;;;;;;;2.92;1.95;;;16.50;82.80;;;;;;5155041;27;20046;-75
2021/08/19 01:41:56;;;;;;;2.20;1.90;;;16.40;82.70;;;;;;5155067;27;20479;-76
2021/08/19 01:44:21;;;;;;;4.63;2.42;;;16.40;82.80;;;;;;5136793;27;20082;-75
2021/08/19 01:47:00;;;;;;;4.22;2.58;;;16.40;83.10;;;;;;5154740;27;20111;-75
2021/08/19 01:49:27;;;;;;;2.40;2.10;;;16.30;83.40;;;;;;5154748;27;20385;-78
2021/08/19 01:51:53;;;;;;;3.25;2.67;;;16.30;83.70;;;;;;5154714;27;20390;-78
2021/08/19 01:54:20;;;;;;;2.83;2.13;;;16.20;84.00;;;;;;5154809;27;20082;-78
2021/08/19 01:56:45;;;;;;;2.33;2.10;;;16.20;84.30;;;;;;5135815;27;20512;-76
2021/08/19 01:59:11;;;;;;;3.42;2.22;;;16.20;84.30;;;;;;5154832;27;20094;-76
2021/08/19 02:01:37;;;;;;;2.45;2.15;;;16.20;84.60;;;;;;5154543;27;20870;-76
2021/08/19 02:04:04;;;;;;;3.63;2.45;;;16.10;84.90;;;;;;5154659;27;20094;-76
2021/08/19 02:06:30;;;;;;;2.38;2.00;;;16.10;85.30;;;;;;5135900;27;20025;-75
2021/08/19 02:08:56;;;;;;;5.22;2.05;;;16.10;85.20;;;;;;5154663;27;20027;-75
2021/08/19 02:11:24;;;;;;;3.67;2.03;;;16.00;85.10;;;;;;5154588;27;20015;-75
2021/08/19 02:13:49;;;;;;;2.65;1.95;;;16.00;86.00;;;;;;5154594;27;20019;-74
2021/08/19 02:16:15;;;;;;;3.00;2.05;;;16.00;85.20;;;;;;5154442;27;20360;-74
2021/08/19 02:18:40;;;;;;;3.25;2.10;;;16.00;85.20;;;;;;5154598;27;20040;-75
2021/08/19 02:21:06;;;;;;;1.92;1.52;;;16.00;85.30;;;;;;5154604;27;20023;-75
2021/08/19 02:23:31;;;;;;;2.65;1.85;;;16.00;85.50;;;;;;5154451;27;20456;-75
2021/08/19 02:25:57;;;;;;;1.65;1.55;;;16.00;86.30;;;;;;5135929;27;20475;-75
2021/08/19 02:28:23;;;;;;;1.45;1.35;;;16.10;85.80;;;;;;5154559;27;20451;-75
2021/08/19 02:30:48;;;;;;;1.40;1.30;;;16.10;85.40;;;;;;5154577;27;20427;-74
2021/08/19 02:33:14;;;;;;;1.27;1.17;;;16.10;85.20;;;;;;5154356;27;20079;-74
2021/08/19 02:35:40;;;;;;;1.88;1.30;;;16.20;85.20;;;;;;5154298;27;20026;-74
2021/08/19 02:38:06;;;;;;;5.15;1.45;;;16.20;85.10;;;;;;5154344;27;20089;-75
2021/08/19 02:40:34;;;;;;;1.48;1.23;;;16.20;85.00;;;;;;5154460;27;20023;-77
2021/08/19 02:43:00;;;;;;;3.00;1.40;;;16.10;85.00;;;;;;5135757;27;20023;-76
2021/08/19 02:45:26;;;;;;;1.35;1.08;;;16.10;85.30;;;;;;5154324;27;20177;-77
2021/08/19 02:47:51;;;;;;;3.03;1.40;;;16.00;85.30;;;;;;5154276;27;20030;-76
2021/08/19 02:50:17;;;;;;;1.50;1.40;;;16.10;85.50;;;;;;5154138;27;20471;-77
2021/08/19 02:52:43;;;;;;;1.42;1.17;;;16.10;85.80;;;;;;5154081;27;20122;-77
2021/08/19 02:55:10;;;;;;;1.75;1.63;;;16.10;85.90;;;;;;5153987;27;20026;-77
2021/08/19 02:57:35;;;;;;;1.60;1.50;;;16.20;85.90;;;;;;5153970;27;20110;-78
2021/08/19 03:00:01;;;;;;;1.55;1.38;;;16.20;86.10;;;;;;5154269;27;20446;-77
2021/08/19 03:02:26;;;;;;;1.52;1.27;;;16.20;86.10;;;;;;5154039;27;20030;-77
2021/08/19 03:04:52;;;;;;;4.40;1.50;;;16.20;86.10;;;;;;5154116;27;20099;-77
2021/08/19 03:07:18;;;;;;;3.00;1.58;;;16.20;86.10;;;;;;5154093;27;20038;-77
2021/08/19 03:09:44;;;;;;;2.42;1.20;;;16.20;86.00;;;;;;5156790;27;20097;-77
2021/08/19 03:12:10;;;;;;;2.22;1.30;;;16.20;86.00;;;;;;5158048;27;20494;-77
2021/08/19 03:14:36;;;;;;;1.35;1.23;;;16.20;85.90;;;;;;5157867;27;20355;-77
2021/08/19 03:17:02;;;;;;;4.10;1.45;;;16.10;85.80;;;;;;5157752;27;20034;-77
2021/08/19 03:19:28;;;;;;;0.98;0.90;;;16.20;86.00;;;;;;5157578;27;20023;-77
2021/08/19 03:21:54;;;;;;;1.70;1.33;;;16.20;85.90;;;;;;5157542;27;20391;-77
2021/08/19 03:24:20;;;;;;;1.23;1.08;;;16.20;85.80;;;;;;5157394;27;20022;-77
2021/08/19 03:26:46;;;;;;;1.58;1.00;;;16.20;85.80;;;;;;5157527;27;20098;-77
2021/08/19 03:29:11;;;;;;;1.88;1.35;;;16.20;85.50;;;;;;5138776;27;20474;-77
2021/08/19 03:31:37;;;;;;;1.20;1.10;;;16.20;85.50;;;;;;5157349;27;20033;-77
2021/08/19 03:34:03;;;;;;;2.10;1.08;;;16.20;85.40;;;;;;5157435;27;20101;-77
2021/08/19 03:36:28;;;;;;;1.10;1.00;;;16.20;85.20;;;;;;5157186;27;20105;-77
2021/08/19 03:38:54;;;;;;;1.38;0.80;;;16.20;85.30;;;;;;5157253;27;20057;-77
2021/08/19 03:41:21;;;;;;;1.58;1.00;;;16.10;85.20;;;;;;5157105;27;20027;-78
2021/08/19 03:43:47;;;;;;;1.25;1.02;;;16.20;85.00;;;;;;5157083;27;20026;-77
2021/08/19 03:46:14;;;;;;;1.20;1.10;;;16.20;84.80;;;;;;5156853;27;20388;-76
2021/08/19 03:48:39;;;;;;;1.40;1.08;;;16.20;84.70;;;;;;5156987;27;20121;-77
2021/08/19 03:51:05;;;;;;;1.40;0.90;;;16.20;84.50;;;;;;5156875;27;20054;-77
2021/08/19 03:53:31;;;;;;;3.28;1.13;;;16.20;84.60;;;;;;5156864;27;20544;-77
2021/08/19 03:55:57;;;;;;;1.42;1.02;;;16.20;84.70;;;;;;5156855;27;20042;-77
2021/08/19 03:58:23;;;;;;;3.15;1.30;;;16.10;84.90;;;;;;5156817;27;20031;-77
2021/08/19 04:00:50;;;;;;;1.80;1.10;;;16.10;85.00;;;;;;5156669;27;20078;-78
2021/08/19 04:03:16;;;;;;;1.10;0.98;;;16.10;85.00;;;;;;5156633;27;20607;-77
2021/08/19 04:05:42;;;;;;;2.60;1.33;;;16.10;85.20;;;;;;5138191;27;20060;-77
2021/08/19 04:08:07;;;;;;;2.42;1.17;;;16.10;85.20;;;;;;5156732;27;20506;-77
2021/08/19 04:10:33;;;;;;;2.58;1.08;;;16.10;85.40;;;;;;5156437;27;20071;-77
2021/08/19 04:12:59;;;;;;;1.38;0.82;;;16.20;85.40;;;;;;5156660;27;20042;-77
2021/08/19 04:15:24;;;;;;;0.85;0.82;;;16.20;85.40;;;;;;5156510;27;20031;-77
2021/08/19 04:17:53;;;;;;;2.55;1.20;;;16.20;85.40;;;;;;5156277;27;20042;-77
2021/08/19 04:20:20;;;;;;;1.67;1.10;;;16.20;85.30;;;;;;5155991;27;20443;-77
2021/08/19 04:22:46;;;;;;;2.00;1.05;;;16.20;85.30;;;;;;5137712;27;20023;-77
2021/08/19 04:25:12;;;;;;;1.83;1.35;;;16.20;85.30;;;;;;5156358;27;20019;-77
2021/08/19 04:27:38;;;;;;;1.27;1.10;;;16.20;85.30;;;;;;5156099;27;20083;-77
2021/08/19 04:30:05;;;;;;;1.33;1.23;;;16.20;85.60;;;;;;5156186;27;20493;-77
2021/08/19 04:32:30;;;;;;;3.00;1.55;;;16.10;85.50;;;;;;5155883;27;20023;-77
2021/08/19 04:34:56;;;;;;;1.50;1.23;;;16.20;85.60;;;;;;5156013;27;20044;-77
2021/08/19 04:37:22;;;;;;;1.38;1.10;;;16.10;85.60;;;;;;5156060;27;20113;-77
2021/08/19 04:39:47;;;;;;;3.90;1.40;;;16.10;85.50;;;;;;5156091;27;20485;-77
2021/08/19 04:42:13;;;;;;;1.63;1.05;;;16.10;85.50;;;;;;5156898;27;20497;-77
2021/08/19 04:44:39;;;;;;;2.83;1.00;;;16.10;85.30;;;;;;5160720;27;20054;-78
2021/08/19 04:47:04;;;;;;;1.08;0.98;;;16.20;85.20;;;;;;5161542;27;20023;-77
2021/08/19 04:49:30;;;;;;;0.93;0.93;;;16.20;85.10;;;;;;5158015;27;20037;-77
2021/08/19 04:51:56;;;;;;;1.00;0.82;;;16.20;85.10;;;;;;5137049;27;20057;-77
2021/08/19 04:54:21;;;;;;;2.00;0.82;;;16.20;85.20;;;;;;5155726;27;20027;-77
2021/08/19 04:56:47;;;;;;;1.27;0.95;;;16.20;85.10;;;;;;5155476;27;20039;-77
2021/08/19 04:59:12;;;;;;;1.60;1.00;;;16.20;85.10;;;;;;5155622;27;20019;-76
2021/08/19 05:01:41;;;;;;;1.88;1.17;;;16.20;85.20;;;;;;5155722;27;20033;-76
2021/08/19 05:04:07;;;;;;;0.73;0.73;;;16.20;85.10;;;;;;5155654;27;20402;-76
2021/08/19 05:06:33;;;;;;;1.27;1.05;;;16.20;85.00;;;;;;5155487;27;20018;-76
2021/08/19 05:09:00;;;;;;;1.50;1.38;;;16.20;85.00;;;;;;5155539;27;20023;-76
2021/08/19 05:11:26;;;;;;;2.67;1.58;;;16.20;85.00;;;;;;5155530;27;20014;-76
2021/08/19 05:13:53;;;;;;;1.42;1.30;;;16.20;85.10;;;;;;5155032;27;20398;-76
2021/08/19 05:16:19;;;;;;;3.70;1.40;;;16.20;85.00;;;;;;5154966;27;20018;-76
2021/08/19 05:18:45;;;;;;;1.55;1.13;;;16.20;85.10;;;;;;5155087;27;20083;-76
2021/08/19 05:21:12;;;;;;;2.97;1.20;;;16.20;85.20;;;;;;5155345;27;20106;-76
2021/08/19 05:23:39;;;;;;;1.52;0.90;;;16.20;85.10;;;;;;5155088;27;20470;-76
2021/08/19 05:26:05;;;;;;;2.35;1.02;;;16.20;85.10;;;;;;5155035;27;20167;-76
2021/08/19 05:28:31;;;;;;;1.48;1.10;;;16.30;85.00;;;;;;5154679;27;20026;-77
2021/08/19 05:30:56;;;;;;;2.95;1.20;;;16.30;85.00;;;;;;5154341;27;20027;-76
2021/08/19 05:33:22;;;;;;;1.38;0.85;;;16.30;85.00;;;;;;5155007;27;20029;-78
2021/08/19 05:35:47;;;;;;;1.75;1.52;;;16.30;85.10;;;;;;5154893;27;20109;-78
2021/08/19 05:38:13;;;;;;;1.85;1.35;;;16.30;84.90;;;;;;5155051;27;20377;-78
2021/08/19 05:40:38;;;;;;;2.75;1.30;;;16.20;84.80;;;;;;5136180;27;20072;-77
2021/08/19 05:43:06;;;;;;;2.65;1.40;;;16.30;85.00;;;;;;5154400;27;20068;-76
2021/08/19 05:45:32;;;;;;;1.30;1.20;;;16.30;84.90;;;;;;5154532;27;20019;-76
2021/08/19 05:47:58;;;;;;;1.75;1.08;;;16.30;84.80;;;;;;5154443;27;20038;-77
2021/08/19 05:50:23;;;;;;;2.30;1.30;;;16.40;84.60;;;;;;5154585;27;20014;-76
2021/08/19 05:52:49;;;;;;;1.90;1.20;;;16.50;84.50;;;;;;5135833;27;20137;-76
2021/08/19 05:55:14;;;;;;;1.17;1.10;;;16.50;84.20;;;;;;5154549;27;20027;-76
2021/08/19 05:57:40;;;;;;;1.20;1.10;;;16.60;83.90;;;;;;5161314;27;20483;-76
2021/08/19 06:00:06;;;;;;;5.32;1.67;;;16.60;83.70;;;;;;5164424;27;20019;-79
2021/08/19 06:02:32;;;;;;;4.93;2.10;;;16.70;84.00;;;;;;5173101;27;20102;-80
2021/08/19 06:04:58;;;;;;;6.65;1.80;;;16.80;84.50;;;;;;5155226;27;20122;-82
2021/08/19 06:07:24;;;;;;;2.20;1.25;;;16.90;84.20;;;;;;5154478;27;20467;-81
2021/08/19 06:09:50;;;;;;;2.22;1.48;;;17.00;82.40;;;;;;5135962;27;20110;-80
2021/08/19 06:12:15;;;;;;;5.15;1.42;;;17.10;81.60;;;;;;5154253;27;20428;-82
2021/08/19 06:14:41;;;;;;;5.15;1.35;;;17.30;81.30;;;;;;5154328;27;20023;-81
2021/08/19 06:17:06;;;;;;;3.95;1.38;;;17.30;79.90;;;;;;5154070;27;20060;-81
2021/08/19 06:19:32;;;;;;;2.05;1.30;;;17.50;79.50;;;;;;5153773;27;20463;-79
2021/08/19 06:21:57;;;;;;;1.70;1.10;;;17.60;78.20;;;;;;5154038;27;20027;-80
2021/08/19 06:24:23;;;;;;;2.92;1.80;;;17.70;77.60;;;;;;5154142;27;20050;-80
2021/08/19 06:26:48;;;;;;;4.65;2.65;;;17.80;75.20;;;;;;5154357;27;20463;-80
2021/08/19 06:29:14;;;;;;;2.10;1.48;;;17.90;75.00;;;;;;5154148;27;20031;-79
2021/08/19 06:31:40;;;;;;;2.70;1.20;;;17.90;74.50;;;;;;5154536;27;20030;-80
2021/08/19 06:34:05;;;;;;;2.17;0.95;;;18.00;74.70;;;;;;5153922;27;20481;-78
2021/08/19 06:36:31;;;;;;;2.33;1.00;;;18.10;73.80;;;;;;5152761;27;20913;-79
2021/08/19 06:38:56;;;;;;;1.95;0.95;;;18.20;73.60;;;;;;5153788;27;20019;-79
2021/08/19 06:41:24;;;;;;;3.30;0.88;;;18.30;73.40;;;;;;5154034;27;20035;-79
2021/08/19 06:43:50;;;;;;;2.03;0.65;;;18.30;70.90;;;;;;5157172;27;20101;-79
2021/08/19 06:46:15;;;;;;;1.50;0.60;;;18.30;69.60;;;;;;5157882;27;20050;-78
2021/08/19 06:48:41;;;;;;;0.80;0.63;;;18.30;69.40;;;;;;5157192;27;20023;-79
2021/08/19 06:51:07;;;;;;;0.80;0.70;;;18.10;69.40;;;;;;5157625;27;20015;-78
2021/08/19 06:53:33;;;;;;;4.15;0.75;;;18.20;69.60;;;;;;5157947;27;20459;-79
2021/08/19 06:55:58;;;;;;;7.40;1.25;;;18.10;68.70;;;;;;5158189;27;20015;-79
2021/08/19 06:58:24;;;;;;;1.27;0.50;;;18.20;69.20;;;;;;5158194;27;20514;-80
2021/08/19 07:00:49;;;;;;;3.83;0.50;;;18.20;68.80;;;;;;5159038;27;20563;-76
2021/08/19 07:03:16;;;;;;;2.13;0.63;;;18.20;67.60;;;;;;5139580;27;20030;-77
2021/08/19 07:05:43;;;;;;;1.60;1.42;;;18.10;67.20;;;;;;5157951;27;20390;-76
2021/08/19 07:08:08;;;;;;;3.60;1.45;;;18.10;67.10;;;;;;5157723;27;20070;-76
2021/08/19 07:10:34;;;;;;;3.30;0.88;;;18.00;67.70;;;;;;5157495;27;20467;-76
2021/08/19 07:13:00;;;;;;;1.52;0.60;;;18.00;67.50;;;;;;5157568;27;20029;-76
2021/08/19 07:15:25;;;;;;;2.53;0.50;;;18.00;67.10;;;;;;5157391;27;20090;-77
2021/08/19 07:17:51;;;;;;;1.05;0.60;;;18.00;68.00;;;;;;5138921;27;20094;-77
2021/08/19 07:20:17;;;;;;;0.90;0.38;;;18.00;67.30;;;;;;5157359;27;20034;-76
2021/08/19 07:22:45;;;;;;;0.68;0.30;;;18.00;67.30;;;;;;5157192;27;20031;-77
2021/08/19 07:25:12;;;;;;;0.52;0.52;;;18.00;66.60;;;;;;5157266;27;20463;-76
2021/08/19 07:27:38;;;;;;;1.05;0.45;;;18.10;66.40;;;;;;5156985;27;20026;-76
2021/08/19 07:30:04;;;;;;;0.63;0.43;;;18.20;66.10;;;;;;5156634;27;20030;-76
2021/08/19 07:32:30;;;;;;;1.02;0.50;;;18.10;66.10;;;;;;5138283;27;20057;-76
2021/08/19 07:34:56;;;;;;;0.50;0.30;;;18.20;65.00;;;;;;5156826;27;20447;-77
2021/08/19 07:37:21;;;;;;;1.85;0.43;;;18.20;65.10;;;;;;5157186;27;20447;-77
2021/08/19 07:39:47;;;;;;;0.65;0.40;;;18.30;64.70;;;;;;5156797;27;20481;-76
2021/08/19 07:42:12;;;;;;;0.43;0.20;;;18.30;64.00;;;;;;5156732;27;20432;-76
2021/08/19 07:44:38;;;;;;;0.73;0.50;;;18.40;63.80;;;;;;5156761;27;20037;-76
2021/08/19 07:47:04;;;;;;;0.75;0.60;;;18.40;63.80;;;;;;5156981;27;20027;-76
2021/08/19 07:49:29;;;;;;;1.15;0.52;;;18.60;63.60;;;;;;5156796;27;20025;-76
2021/08/19 07:51:55;;;;;;;2.38;0.70;;;18.80;61.90;;;;;;5138020;27;20073;-77
2021/08/19 07:54:21;;;;;;;0.55;0.30;;;19.00;60.90;;;;;;5156104;27;20023;-77
2021/08/19 07:56:46;;;;;;;0.30;0.13;;;19.10;57.70;;;;;;5138006;27;20489;-77
2021/08/19 07:59:12;;;;;;;0.70;0.17;;;19.30;56.60;;;;;;5156366;27;20226;-76
2021/08/19 08:01:37;;;;;;;0.55;0.35;;;19.50;57.00;;;;;;5156620;27;20035;-76
2021/08/19 08:04:04;;;;;;;0.22;0.20;;;19.60;57.00;;;;;;5156710;27;20022;-76
2021/08/19 08:06:29;;;;;;;0.22;0.20;;;19.70;57.20;;;;;;5156682;27;20071;-76
2021/08/19 08:08:55;;;;;;;0.60;0.40;;;19.50;56.20;;;;;;5157137;27;20031;-77
2021/08/19 08:11:21;;;;;;;0.68;0.30;;;19.60;56.50;;;;;;5156385;27;20022;-76
2021/08/19 08:13:46;;;;;;;1.30;0.20;;;19.70;55.90;;;;;;5157463;27;20025;-77
2021/08/19 08:16:12;;;;;;;0.68;0.25;;;19.80;56.20;;;;;;5156346;27;20023;-77
2021/08/19 08:18:37;;;;;;;3.03;0.30;;;19.90;55.40;;;;;;5138556;27;20035;-76
2021/08/19 08:21:03;;;;;;;0.77;0.30;;;20.00;55.20;;;;;;5156266;27;20035;-77
2021/08/19 08:23:33;;;;;;;0.60;0.40;;;19.70;56.30;;;;;;5156009;27;20024;-77
2021/08/19 08:26:00;;;;;;;0.88;0.47;;;19.60;56.00;;;;;;5156174;27;20026;-77
2021/08/19 08:28:26;;;;;;;0.50;0.40;;;19.30;59.30;;;;;;5156235;27;20046;-77
2021/08/19 08:30:52;;;;;;;4.80;2.85;;;19.30;59.80;;;;;;5155865;27;20019;-77
2021/08/19 08:33:19;;;;;;;0.95;0.70;;;19.50;59.00;;;;;;5155879;27;20026;-77
2021/08/19 08:35:45;;;;;;;1.35;0.70;;;19.60;59.20;;;;;;5155819;27;20482;-76
2021/08/19 08:38:14;;;;;;;1.10;0.57;;;19.70;59.20;;;;;;5155562;27;20037;-76
2021/08/19 08:40:42;;;;;;;1.30;0.65;;;19.60;59.40;;;;;;5155852;27;20451;-77
2021/08/19 08:43:09;;;;;;;0.50;0.47;;;19.80;59.70;;;;;;5158960;27;20080;-77
2021/08/19 08:45:36;;;;;;;1.58;0.65;;;19.70;57.50;;;;;;5164846;27;20284;-77
2021/08/19 08:48:09;;;;;;;0.95;0.60;;;19.70;58.30;;;;;;5155715;27;20027;-77
2021/08/19 08:50:35;;;;;;;0.57;0.57;;;19.60;59.60;;;;;;5155546;27;20075;-76
2021/08/19 08:53:01;;;;;;;0.45;0.45;;;19.60;60.00;;;;;;5155222;27;20050;-77
2021/08/19 08:55:27;;;;;;;2.08;1.00;;;19.70;58.80;;;;;;5155478;27;20059;-77
2021/08/19 08:57:54;;;;;;;0.65;0.63;;;19.70;59.70;;;;;;5155380;27;20106;-76
2021/08/19 09:00:20;;;;;;;1.55;0.57;;;19.50;60.00;;;;;;5155436;27;20073;-76
2021/08/19 09:02:46;;;;;;;0.60;0.60;;;19.50;59.80;;;;;;5136957;27;20055;-77
2021/08/19 09:05:15;;;;;;;0.73;0.57;;;19.40;60.60;;;;;;5154919;27;20371;-77
2021/08/19 09:07:41;;;;;;;1.08;0.80;;;19.50;60.00;;;;;;5135606;27;20026;-76
2021/08/19 09:10:07;;;;;;;1.52;0.95;;;19.50;60.00;;;;;;5154894;27;20467;-76
2021/08/19 09:12:42;;;;;;;1.08;0.70;;;19.50;58.40;;;;;;5154945;27;20027;-76
2021/08/19 09:15:14;;;;;;;1.20;0.80;;;19.60;57.20;;;;;;5155174;27;20029;-78
2021/08/19 09:17:52;;;;;;;2.00;0.85;;;19.60;56.60;;;;;;5155020;27;20039;-77
2021/08/19 09:20:30;;;;;;;0.95;0.80;;;19.70;56.80;;;;;;5136165;27;20015;-77
2021/08/19 09:23:01;;;;;;;0.93;0.80;;;19.80;56.30;;;;;;5154929;27;20483;-77
2021/08/19 09:25:36;;;;;;;1.80;0.90;;;20.00;54.20;;;;;;5155009;27;20030;-77
2021/08/19 09:28:28;;;;;;;1.77;0.90;;;20.20;54.00;;;;;;5154761;27;20059;-77
2021/08/19 09:30:55;;;;;;;1.20;0.80;;;20.40;53.60;;;;;;5150483;27;20038;-77
2021/08/19 09:33:22;;;;;;;1.30;0.95;;;20.30;53.00;;;;;;5154763;27;20046;-76
2021/08/19 09:35:48;;;;;;;0.73;0.70;;;20.60;53.40;;;;;;5154606;27;20019;-74
2021/08/19 09:38:20;;;;;;;1.20;0.68;;;21.00;51.80;;;;;;5154599;27;20062;-74
2021/08/19 09:41:14;;;;;;;0.77;0.63;;;21.10;50.70;;;;;;5136100;27;20051;-75
2021/08/19 09:43:49;;;;;;;1.27;0.70;;;20.90;49.70;;;;;;5132197;27;20027;-74
2021/08/19 09:46:37;;;;;;;;;;;21.20;50.70;;;;;;5155916;27;20094;-74
2021/08/19 09:49:27;;;;;;;1.75;0.70;;;21.50;49.20;;;;;;5141719;27;19976;-74
2021/08/19 09:52:02;;;;;;;0.73;0.73;;;21.60;47.90;;;;;;5154616;27;20171;-74
2021/08/19 09:54:29;;;;;;;;;;;21.60;48.80;;;;;;5136659;27;20022;-74
2021/08/19 09:56:54;;;;;;;1.85;0.80;;;21.80;49.00;;;;;;5154345;27;19911;-75
2021/08/19 09:59:26;;;;;;;1.10;0.80;;;22.00;46.90;;;;;;5154414;27;20022;-76
2021/08/19 10:01:53;;;;;;;1.10;0.77;;;22.00;45.60;;;;;;5154371;27;20014;-76
2021/08/19 10:04:20;;;;;;;1.52;0.73;;;21.80;46.70;;;;;;5154264;27;20018;-76
2021/08/19 10:06:46;;;;;;;1.05;0.50;;;21.40;48.00;;;;;;5154399;27;20050;-76
2021/08/19 10:09:12;;;;;;;2.35;0.90;;;21.50;48.20;;;;;;5154626;27;20026;-77
2021/08/19 10:11:42;;;;;;;1.60;1.08;;;21.30;47.80;;;;;;5154206;27;20034;-76
2021/08/19 10:14:13;;;;;;;2.97;0.90;;;21.40;48.30;;;;;;5154482;27;20022;-76
2021/08/19 10:16:40;;;;;;;2.97;0.70;;;21.40;48.20;;;;;;5154476;27;20054;-76
2021/08/19 10:19:09;;;;;;;1.00;0.90;;;21.40;48.50;;;;;;5158367;27;20113;-76
2021/08/19 10:21:37;;;;;;;2.72;1.00;;;21.40;48.00;;;;;;5158574;27;20102;-76
2021/08/19 10:24:04;;;;;;;0.70;0.70;;;21.40;47.30;;;;;;5161520;27;20019;-75
2021/08/19 10:26:31;;;;;;;2.55;1.00;;;21.50;46.70;;;;;;5163808;27;20114;-76
2021/08/19 10:28:58;;;;;;;2.40;0.90;;;21.60;46.60;;;;;;5162247;27;20015;-75
2021/08/19 10:31:43;;;;;;;1.00;0.90;;;21.60;46.30;;;;;;5158855;27;20383;-75
2021/08/19 10:34:11;;;;;;;0.60;0.60;;;21.70;45.90;;;;;;5158527;27;20019;-76
2021/08/19 10:36:45;;;;;;;1.08;0.88;;;21.80;45.10;;;;;;5158229;27;20084;-76
2021/08/19 10:39:19;;;;;;;2.58;1.83;;;22.10;45.10;;;;;;5158134;27;20542;-76
2021/08/19 10:41:54;;;;;;;1.37;1.00;;;22.00;46.40;;;;;;5158371;27;20019;-77
2021/08/19 10:44:31;;;;;;;1.58;1.10;;;21.70;46.20;;;;;;5139270;27;20026;-77
2021/08/19 10:46:57;;;;;;;1.95;1.00;;;21.40;47.10;;;;;;5158018;27;20061;-75
2021/08/19 10:49:52;;;;;;;1.40;1.00;;;21.40;48.30;;;;;;5157946;27;20019;-76
2021/08/19 10:52:23;;;;;;;2.90;0.98;;;21.30;49.00;;;;;;5135906;27;20043;-77
2021/08/19 10:54:50;;;;;;;2.65;0.90;;;21.20;50.50;;;;;;5158041;27;20033;-75
2021/08/19 10:57:24;;;;;;;1.15;0.85;;;20.90;52.60;;;;;;5157788;27;20026;-76
2021/08/19 11:00:06;;;;;;;1.30;0.90;;;20.70;53.60;;;;;;5157857;27;20047;-76
2021/08/19 11:02:43;;;;;;;1.30;0.82;;;20.70;54.30;;;;;;5158174;27;20347;-76
2021/08/19 11:05:11;;;;;;;2.45;0.95;;;20.70;54.40;;;;;;5158196;27;20409;-76
2021/08/19 11:07:48;;;;;;;4.25;1.02;;;20.70;54.40;;;;;;5157972;27;20545;-76
2021/08/19 11:10:24;;;;;;;1.60;0.93;;;20.70;55.10;;;;;;5158086;27;20386;-75
2021/08/19 11:12:50;;;;;;;1.38;1.08;;;20.70;56.20;;;;;;5157975;27;20026;-77
2021/08/19 11:15:16;;;;;;;1.13;0.90;;;20.60;56.60;;;;;;5157800;27;20019;-76
2021/08/19 11:17:56;;;;;;;1.05;0.95;;;20.50;56.60;;;;;;5157561;27;20031;-76
2021/08/19 11:20:26;;;;;;;1.50;1.23;;;20.50;56.10;;;;;;5157585;27;20023;-76
2021/08/19 11:23:07;;;;;;;0.93;0.80;;;20.40;56.20;;;;;;5157594;27;20033;-76
2021/08/19 11:25:38;;;;;;;1.77;0.90;;;20.50;56.00;;;;;;5157851;27;20094;-76
2021/08/19 11:28:15;;;;;;;3.65;1.05;;;20.60;56.00;;;;;;5160339;27;20037;-76
2021/08/19 11:30:46;;;;;;;2.42;1.13;;;20.70;56.00;;;;;;5158769;27;20051;-76
2021/08/19 11:33:17;;;;;;;1.58;0.90;;;20.90;56.20;;;;;;5158042;27;20014;-75
2021/08/19 11:35:51;;;;;;;1.70;1.00;;;21.00;55.70;;;;;;5160469;27;20027;-74
2021/08/19 11:38:22;;;;;;;2.65;0.90;;;21.10;55.60;;;;;;5158819;27;20110;-76
2021/08/19 11:40:50;;;;;;;1.27;0.95;;;21.10;55.40;;;;;;5162024;27;20019;-75
2021/08/19 11:43:28;;;;;;;1.42;0.95;;;21.10;54.20;;;;;;5159550;27;20018;-75
2021/08/19 11:46:04;;;;;;;2.83;0.98;;;21.20;53.20;;;;;;5157771;27;20044;-75
2021/08/19 11:48:30;;;;;;;0.80;0.80;;;21.20;51.90;;;;;;5158653;27;20038;-76
2021/08/19 11:50:58;;;;;;;3.63;1.10;;;21.10;52.40;;;;;;5158192;27;20018;-76
2021/08/19 11:53:24;;;;;;;1.55;0.82;;;21.20;51.90;;;;;;5157858;27;20517;-75
2021/08/19 11:55:50;;;;;;;2.55;0.70;;;21.20;51.30;;;;;;5158400;27;20019;-76
2021/08/19 11:58:26;;;;;;;1.92;0.80;;;21.20;50.80;;;;;;5157577;27;20339;-76
2021/08/19 12:01:09;;;;;;;1.38;0.85;;;21.30;51.30;;;;;;5157619;27;20019;-75
2021/08/19 12:03:36;;;;;;;1.50;0.93;;;21.10;52.10;;;;;;5157864;27;20029;-74
2021/08/19 12:06:19;;;;;;;3.40;1.13;;;20.90;53.50;;;;;;5157964;27;20023;-76
2021/08/19 12:08:51;;;;;;;2.95;0.98;;;20.90;53.70;;;;;;5157932;27;20075;-74
2021/08/19 12:11:22;;;;;;;1.50;0.90;;;20.90;53.60;;;;;;5159633;27;20030;-75
2021/08/19 12:13:50;;;;;;;1.00;0.85;;;21.00;52.80;;;;;;5139608;27;20050;-75
2021/08/19 12:16:25;;;;;;;1.27;0.93;;;21.10;52.90;;;;;;5157127;27;20015;-75
2021/08/19 12:19:07;;;;;;;1.90;0.80;;;21.10;52.50;;;;;;5156740;27;20031;-74
2021/08/19 12:21:33;;;;;;;1.58;1.02;;;21.00;52.50;;;;;;5156772;27;20019;-74
2021/08/19 12:24:20;;;;;;;0.95;0.82;;;21.00;52.50;;;;;;5157825;27;20115;-74
2021/08/19 12:27:24;;;;;;;1.27;0.70;;;21.10;52.50;;;;;;5156839;27;20094;-74
2021/08/19 12:29:52;;;;;;;2.00;1.00;;;21.10;53.60;;;;;;5157629;27;20037;-74
2021/08/19 12:32:27;;;;;;;2.25;0.93;;;21.20;55.00;;;;;;5157760;27;20471;-74
2021/08/19 12:35:03;;;;;;;;;;;21.20;55.50;;;;;;5157203;27;20040;-74
2021/08/19 12:37:31;;;;;;;1.05;0.70;;;21.20;55.10;;;;;;5158144;27;20005;-74
2021/08/19 12:40:06;;;;;;;1.13;1.00;;;21.20;55.30;;;;;;5155943;27;20027;-74
2021/08/19 12:42:33;;;;;;;1.25;0.70;;;21.30;55.60;;;;;;5155828;27;20027;-74
2021/08/19 12:45:07;;;;;;;1.65;0.70;;;21.30;55.60;;;;;;5156456;27;20467;-74
2021/08/19 12:47:38;;;;;;;0.88;0.85;;;21.30;55.90;;;;;;5155927;27;20038;-74
2021/08/19 12:50:04;;;;;;;1.55;0.80;;;21.20;56.60;;;;;;5155944;27;20019;-74
2021/08/19 12:52:30;;;;;;;1.42;0.75;;;21.20;56.40;;;;;;5155600;27;20183;-75